createdAt,value
2024-01-03T00:01:51.447Z,95420.22
2024-01-03T00:04:30.205Z,95405.38
2024-01-03T00:07:01.469Z,95412.81
2024-01-03T00:09:34.805Z,95428.13
2024-01-03T00:12:06.246Z,95419.56
2024-01-03T00:14:38.982Z,95428.59
2024-01-03T00:17:15.039Z,95425.09
2024-01-03T00:19:49.094Z,95432.84
2024-01-03T00:22:25.896Z,95433.00
2024-01-03T00:25:13.664Z,95441.53
2024-01-03T00:27:48.888Z,95445.56
2024-01-03T00:30:20.350Z,95443.31
2024-01-03T00:33:01.845Z,95443.53
2024-01-03T00:35:36.801Z,95442.28
2024-01-03T00:38:08.069Z,95430.69
2024-01-03T00:40:56.189Z,95436.59
2024-01-03T00:43:26.902Z,95433.63
2024-01-03T00:45:57.914Z,95447.81
2024-01-03T00:48:29.632Z,95436.75
2024-01-03T00:51:01.173Z,95438.25
2024-01-03T00:53:32.832Z,95445.25
2024-01-03T00:56:07.790Z,95451.25
2024-01-03T00:58:38.910Z,95449.91
2024-01-03T01:01:09.570Z,95455.44
2024-01-03T01:03:46.141Z,95456.69
2024-01-03T01:06:17.276Z,95463.41
2024-01-03T01:08:51.107Z,95456.81
2024-01-03T01:11:24.773Z,95468.13
2024-01-03T01:13:55.710Z,95475.91
2024-01-03T01:16:26.730Z,95482.19
2024-01-03T01:19:01.897Z,95475.34
2024-01-03T01:21:32.890Z,95477.56
2024-01-03T01:24:03.817Z,95471.06
2024-01-03T01:26:37.938Z,95454.50
2024-01-03T01:29:09.133Z,95462.78
2024-01-03T01:31:41.274Z,95474.84
2024-01-03T01:34:15.394Z,95471.81
2024-01-03T01:36:49.100Z,95482.78
2024-01-03T01:39:24.146Z,95474.44
2024-01-03T01:42:02.699Z,95490.56
2024-01-03T01:44:35.586Z,95501.00
2024-01-03T01:47:12.657Z,95491.44
2024-01-03T01:49:45.235Z,95488.69
2024-01-03T01:52:17.847Z,95502.59
2024-01-03T01:54:48.526Z,95504.75
2024-01-03T01:57:23.325Z,95503.25
2024-01-03T01:59:54.241Z,95490.19
2024-01-03T02:02:28.475Z,95498.09
2024-01-03T02:04:59.536Z,95505.66
2024-01-03T02:07:30.603Z,95506.19
2024-01-03T02:10:02.360Z,95528.81
2024-01-03T02:12:36.010Z,95523.28
2024-01-03T02:15:07.298Z,95510.22
2024-01-03T02:17:42.015Z,95525.06
2024-01-03T02:20:17.294Z,95520.81
2024-01-03T02:22:53.393Z,95523.78
2024-01-03T02:25:24.375Z,95521.03
2024-01-03T02:27:55.038Z,95512.75
2024-01-03T02:30:25.774Z,95519.31
2024-01-03T02:32:56.645Z,95529.25
2024-01-03T02:35:27.417Z,95528.22
2024-01-03T02:38:00.875Z,95519.41
2024-01-03T02:40:31.604Z,95520.97
2024-01-03T02:43:02.316Z,95513.88
2024-01-03T02:45:33.025Z,95521.69
2024-01-03T02:48:04.609Z,95528.28
2024-01-03T02:50:35.825Z,95521.75
2024-01-03T02:53:11.998Z,95527.28
2024-01-03T02:55:42.827Z,95520.81
2024-01-03T02:58:13.530Z,95519.00
2024-01-03T03:00:44.337Z,95521.31
2024-01-03T03:03:15.415Z,95512.06
2024-01-03T03:05:46.260Z,95510.25
2024-01-03T03:08:19.584Z,95509.97
2024-01-03T03:10:50.407Z,95507.75
2024-01-03T03:13:21.129Z,95524.59
2024-01-03T03:15:51.828Z,95526.41
2024-01-03T03:18:22.846Z,95519.59
2024-01-03T03:20:53.804Z,95523.63
2024-01-03T03:23:27.122Z,95527.91
2024-01-03T03:25:57.843Z,95522.38
2024-01-03T03:28:28.420Z,95521.84
2024-01-03T03:30:59.081Z,95519.22
2024-01-03T03:33:29.818Z,95539.63
2024-01-03T03:36:01.061Z,95523.13
2024-01-03T03:38:34.559Z,95504.50
2024-01-03T03:41:05.195Z,95519.53
2024-01-03T03:43:35.756Z,95506.78
2024-01-03T03:46:06.508Z,95502.03
2024-01-03T03:48:37.414Z,95504.78
2024-01-03T03:51:09.252Z,95499.03
2024-01-03T03:53:42.588Z,95508.88
2024-01-03T03:56:13.540Z,95491.56
2024-01-03T03:58:44.165Z,95498.56
2024-01-03T04:01:14.866Z,95507.69
2024-01-03T04:03:45.604Z,95507.69
2024-01-03T04:06:17.200Z,95504.16
2024-01-03T04:08:51.842Z,95512.69
2024-01-03T04:11:22.799Z,95503.34
2024-01-03T04:13:53.431Z,95505.16
2024-01-03T04:16:23.988Z,95515.72
2024-01-03T04:18:54.674Z,95513.72
2024-01-03T04:21:25.449Z,95525.75
2024-01-03T04:23:59.002Z,95520.44
2024-01-03T04:26:30.216Z,95517.16
2024-01-03T04:29:00.854Z,95532.25
2024-01-03T04:31:33.699Z,95535.47
2024-01-03T04:34:04.737Z,95531.41
2024-01-03T04:36:35.386Z,95543.19
2024-01-03T04:39:08.768Z,95540.44
2024-01-03T04:41:40.052Z,95536.94
2024-01-03T04:44:10.640Z,95547.38
2024-01-03T04:46:41.338Z,95558.34
2024-01-03T04:49:12.088Z,95540.31
2024-01-03T04:51:42.790Z,95557.34
2024-01-03T04:54:16.380Z,95556.94
2024-01-03T04:56:47.530Z,95563.50
2024-01-03T04:59:18.389Z,95568.22
2024-01-03T05:01:49.053Z,95568.75
2024-01-03T05:04:19.736Z,95569.56
2024-01-03T05:06:52.245Z,95560.03
2024-01-03T05:09:25.394Z,95566.09
2024-01-03T05:11:55.950Z,95559.06
2024-01-03T05:14:26.562Z,95561.47
2024-01-03T05:16:57.288Z,95584.13
2024-01-03T05:19:28.084Z,95576.16
2024-01-03T05:21:58.865Z,95579.84
2024-01-03T05:24:32.341Z,95580.34
2024-01-03T05:27:03.165Z,95588.06
2024-01-03T05:29:34.200Z,95588.81
2024-01-03T05:32:05.673Z,95596.75
2024-01-03T05:34:36.979Z,95595.50
2024-01-03T05:37:08.576Z,95605.28
2024-01-03T05:39:41.808Z,95584.28
2024-01-03T05:42:12.811Z,95594.16
2024-01-03T05:44:43.437Z,95594.84
2024-01-03T05:47:14.218Z,95597.09
2024-01-03T05:49:45.087Z,95606.66
2024-01-03T05:52:15.905Z,95601.59
2024-01-03T05:54:49.742Z,95607.41
2024-01-03T05:57:20.420Z,95620.16
2024-01-03T05:59:51.094Z,95604.75
2024-01-03T06:02:21.793Z,95599.91
2024-01-03T06:04:54.229Z,95606.59
2024-01-03T06:07:26.968Z,95618.22
2024-01-03T06:10:00.254Z,95603.59
2024-01-03T06:12:31.445Z,95607.16
2024-01-03T06:15:02.472Z,95617.00
2024-01-03T06:17:32.863Z,95609.50
2024-01-03T06:20:04.619Z,95630.31
2024-01-03T06:22:37.784Z,95625.00
2024-01-03T06:25:12.167Z,95618.97
2024-01-03T06:27:42.743Z,95619.16
2024-01-03T06:30:15.445Z,95627.09
2024-01-03T06:32:46.583Z,95615.47
2024-01-03T06:35:17.199Z,95630.31
2024-01-03T06:37:47.965Z,95633.38
2024-01-03T06:40:22.499Z,95631.84
2024-01-03T06:42:53.048Z,95652.19
2024-01-03T06:45:23.773Z,95640.91
2024-01-03T06:47:54.566Z,95641.41
2024-01-03T06:50:25.387Z,95643.00
2024-01-03T06:52:56.020Z,95646.75
2024-01-03T06:55:29.411Z,95649.00
2024-01-03T06:58:00.234Z,95658.50
2024-01-03T07:00:31.009Z,95657.28
2024-01-03T07:03:01.796Z,95651.50
2024-01-03T07:05:32.436Z,95645.97
2024-01-03T07:08:03.572Z,95660.22
2024-01-03T07:10:36.418Z,95659.28
2024-01-03T07:13:07.857Z,95662.75
2024-01-03T07:15:41.922Z,95655.75
2024-01-03T07:18:13.072Z,95673.09
2024-01-03T07:20:43.962Z,95668.84
2024-01-03T07:23:14.709Z,95692.16
2024-01-03T07:25:47.907Z,95680.31
2024-01-03T07:28:19.467Z,95690.50
2024-01-03T07:30:50.009Z,95690.75
2024-01-03T07:33:20.728Z,95704.28
2024-01-03T07:35:51.374Z,95705.03
2024-01-03T07:38:23.131Z,95692.72
2024-01-03T07:40:56.501Z,95711.06
2024-01-03T07:43:27.152Z,95706.28
2024-01-03T07:45:57.830Z,95704.56
2024-01-03T07:48:28.664Z,95716.88
2024-01-03T07:50:59.759Z,95713.06
2024-01-03T07:53:31.159Z,95722.59
2024-01-03T07:56:04.520Z,95711.53
2024-01-03T07:58:35.092Z,95700.50
2024-01-03T08:01:05.931Z,95704.75
2024-01-03T08:03:36.627Z,95696.44
2024-01-03T08:06:07.887Z,95699.75
2024-01-03T08:08:38.733Z,95699.78
2024-01-03T08:11:13.068Z,95700.81
2024-01-03T08:13:43.718Z,95705.06
2024-01-03T08:16:14.678Z,95707.78
2024-01-03T08:18:46.316Z,95703.47
2024-01-03T08:21:17.244Z,95711.75
2024-01-03T08:23:47.928Z,95695.09
2024-01-03T08:26:23.730Z,95698.34
2024-01-03T08:28:54.317Z,95715.78
2024-01-03T08:31:25.110Z,95689.56
2024-01-03T08:33:56.055Z,95705.19
2024-01-03T08:36:26.768Z,95697.41
2024-01-03T08:38:57.395Z,95705.16
2024-01-03T08:41:30.746Z,95699.31
2024-01-03T08:44:03.757Z,95705.44
2024-01-03T08:46:36.259Z,95698.88
2024-01-03T08:49:07.595Z,95700.13
2024-01-03T08:51:38.444Z,95704.81
2024-01-03T08:54:09.455Z,95691.00
2024-01-03T08:56:43.350Z,95713.81
2024-01-03T08:59:13.946Z,95701.97
2024-01-03T09:01:44.509Z,95703.75
2024-01-03T09:04:15.166Z,95695.13
2024-01-03T09:06:45.863Z,95716.94
2024-01-03T09:09:16.742Z,95708.53
2024-01-03T09:11:51.087Z,95722.47
2024-01-03T09:14:22.017Z,95699.34
2024-01-03T09:16:53.105Z,95709.97
2024-01-03T09:19:24.013Z,95709.16
2024-01-03T09:21:56.513Z,95702.78
2024-01-03T09:24:28.443Z,95703.91
2024-01-03T09:27:02.356Z,95700.16
2024-01-03T09:29:33.627Z,95699.84
2024-01-03T09:32:04.250Z,95713.34
2024-01-03T09:34:35.026Z,95698.47
2024-01-03T09:37:06.757Z,95698.19
2024-01-03T09:39:37.467Z,95709.13
2024-01-03T09:42:14.700Z,95695.94
2024-01-03T09:44:46.542Z,95710.44
2024-01-03T09:47:18.061Z,95719.28
2024-01-03T09:49:50.688Z,95707.00
2024-01-03T09:52:21.799Z,95711.06
2024-01-03T09:54:52.202Z,95711.66
2024-01-03T09:57:26.189Z,95700.81
2024-01-03T09:59:57.734Z,95692.06
2024-01-03T10:02:31.064Z,95696.22
2024-01-03T10:05:01.707Z,95707.47
2024-01-03T10:07:41.454Z,95688.31
2024-01-03T10:10:13.193Z,95656.53
2024-01-03T10:12:46.734Z,95680.44
2024-01-03T10:15:19.872Z,95700.16
2024-01-03T10:17:51.741Z,95686.41
2024-01-03T10:20:32.406Z,95691.22
2024-01-03T10:23:11.176Z,95691.94
2024-01-03T10:25:43.064Z,95707.50
2024-01-03T10:28:19.694Z,95695.22
2024-01-03T10:30:57.102Z,95673.50
2024-01-03T10:33:28.047Z,95683.84
2024-01-03T10:35:59.276Z,95696.72
2024-01-03T10:38:31.152Z,95686.16
2024-01-03T10:41:03.435Z,95678.78
2024-01-03T10:43:37.978Z,95680.06
2024-01-03T10:46:09.931Z,95697.66
2024-01-03T10:48:40.735Z,95699.19
2024-01-03T10:51:17.203Z,95681.16
2024-01-03T10:53:49.987Z,95707.88
2024-01-03T10:56:20.753Z,95704.22
2024-01-03T10:58:54.265Z,95707.97
2024-01-03T11:01:31.889Z,95724.72
2024-01-03T11:04:18.820Z,95707.66
2024-01-03T11:06:58.901Z,95678.78
2024-01-03T11:09:30.126Z,95696.81
2024-01-03T11:12:11.803Z,95690.16
2024-01-03T11:14:46.265Z,95683.59
2024-01-03T11:17:16.916Z,95686.34
2024-01-03T11:19:47.665Z,95697.84
2024-01-03T11:22:18.372Z,95682.31
2024-01-03T11:24:47.815Z,95690.28
2024-01-03T11:27:25.339Z,95675.94
2024-01-03T11:30:02.565Z,95670.34
2024-01-03T11:32:39.095Z,95696.19
2024-01-03T11:35:14.663Z,95674.81
2024-01-03T11:37:46.525Z,95681.78
2024-01-03T11:40:26.083Z,95656.63
2024-01-03T11:43:02.848Z,95682.84
2024-01-03T11:45:36.176Z,95677.00
2024-01-03T11:48:07.893Z,95655.78
2024-01-03T11:50:38.716Z,95645.69
2024-01-03T11:53:14.004Z,95652.97
2024-01-03T11:55:55.346Z,95647.78
2024-01-03T11:58:29.738Z,95651.94
2024-01-03T12:01:17.176Z,95641.78
2024-01-03T12:03:47.908Z,95654.47
2024-01-03T12:06:22.751Z,95634.47
2024-01-03T12:08:53.764Z,95645.06
2024-01-03T12:11:24.264Z,95648.31
2024-01-03T12:13:55.143Z,95633.50
2024-01-03T12:16:28.930Z,95654.38
2024-01-03T12:18:59.724Z,95642.91
2024-01-03T12:21:30.638Z,95642.91
2024-01-03T12:24:03.569Z,95627.44
2024-01-03T12:26:34.426Z,95632.00
2024-01-03T12:29:05.419Z,95625.94
2024-01-03T12:31:39.022Z,95626.53
2024-01-03T12:34:10.692Z,95632.78
2024-01-03T12:36:41.555Z,95616.56
2024-01-03T12:39:12.233Z,95618.59
2024-01-03T12:41:43.072Z,95600.38
2024-01-03T12:44:14.718Z,95611.97
2024-01-03T12:46:48.117Z,95620.44
2024-01-03T12:49:18.838Z,95608.88
2024-01-03T12:51:49.528Z,95617.75
2024-01-03T12:54:20.916Z,95631.97
2024-01-03T12:56:52.027Z,95609.41
2024-01-03T12:59:23.597Z,95645.78
2024-01-03T13:01:56.712Z,95659.09
2024-01-03T13:04:27.368Z,95644.72
2024-01-03T13:06:58.120Z,95648.19
2024-01-03T13:09:28.690Z,95631.84
2024-01-03T13:11:59.386Z,95643.59
2024-01-03T13:14:30.094Z,95643.81
2024-01-03T13:17:03.481Z,95637.06
2024-01-03T13:19:34.370Z,95652.16
2024-01-03T13:22:07.618Z,95649.53
2024-01-03T13:24:39.868Z,95633.78
2024-01-03T13:27:10.978Z,95643.66
2024-01-03T13:29:41.748Z,95633.66
2024-01-03T13:32:17.914Z,95623.03
2024-01-03T13:34:48.709Z,95643.66
2024-01-03T13:37:19.604Z,95647.50
2024-01-03T13:39:50.377Z,95642.00
2024-01-03T13:42:21.014Z,95648.00
2024-01-03T13:44:52.188Z,95633.63
2024-01-03T13:47:26.541Z,95649.28
2024-01-03T13:49:57.176Z,95642.25
2024-01-03T13:52:27.783Z,95638.53
2024-01-03T13:54:58.619Z,95661.66
2024-01-03T13:57:29.363Z,95646.06
2024-01-03T14:00:00.117Z,95672.13
2024-01-03T14:02:33.549Z,95666.88
2024-01-03T14:05:04.786Z,95653.69
2024-01-03T14:07:35.543Z,95658.53
2024-01-03T14:10:06.584Z,95665.41
2024-01-03T14:12:37.283Z,95657.03
2024-01-03T14:15:09.990Z,95665.91
2024-01-03T14:17:43.481Z,95669.81
2024-01-03T14:20:17.897Z,95677.44
2024-01-03T14:22:48.837Z,95665.59
2024-01-03T14:25:20.823Z,95660.16
2024-01-03T14:27:54.313Z,95664.81
2024-01-03T14:30:25.813Z,95656.28
2024-01-03T14:32:59.227Z,95672.66
2024-01-03T14:35:30.659Z,95664.38
2024-01-03T14:38:01.285Z,95669.16
2024-01-03T14:40:36.830Z,95665.63
2024-01-03T14:43:15.093Z,95686.34
2024-01-03T14:45:45.958Z,95686.34
2024-01-03T14:48:19.642Z,95672.34
2024-01-03T14:50:50.654Z,95677.69
2024-01-03T14:53:21.613Z,95683.97
2024-01-03T14:55:52.410Z,95685.31
2024-01-03T14:58:23.417Z,95677.63
2024-01-03T15:00:54.735Z,95684.69
2024-01-03T15:03:28.132Z,95687.25
2024-01-03T15:05:58.827Z,95684.25
2024-01-03T15:08:29.694Z,95676.69
2024-01-03T15:11:00.689Z,95688.28
2024-01-03T15:13:31.301Z,95679.28
2024-01-03T15:16:01.970Z,95680.47
2024-01-03T15:18:35.346Z,95680.47
2024-01-03T15:21:06.362Z,95682.00
2024-01-03T15:23:37.112Z,95679.00
2024-01-03T15:26:09.093Z,95684.47
2024-01-03T15:28:39.881Z,95683.22
2024-01-03T15:31:10.668Z,95680.44
2024-01-03T15:33:47.016Z,95685.00
2024-01-03T15:36:18.679Z,95679.16
2024-01-03T15:38:49.440Z,95679.16
2024-01-03T15:41:20.522Z,95673.34
2024-01-03T15:43:50.796Z,95675.44
2024-01-03T15:46:22.604Z,95672.38
2024-01-03T15:48:56.111Z,95666.56
2024-01-03T15:51:27.022Z,95667.41
2024-01-03T15:53:58.049Z,95668.22
2024-01-03T15:56:28.642Z,95662.13
2024-01-03T15:58:59.471Z,95663.69
2024-01-03T16:01:30.269Z,95662.63
2024-01-03T16:04:03.699Z,95668.09
2024-01-03T16:06:34.780Z,95666.84
2024-01-03T16:09:08.059Z,95657.03
2024-01-03T16:11:39.982Z,95662.34
2024-01-03T16:14:11.524Z,95663.56
2024-01-03T16:16:43.204Z,95665.28
2024-01-03T16:19:16.885Z,95669.78
2024-01-03T16:21:50.092Z,95647.66
2024-01-03T16:24:22.905Z,95653.19
2024-01-03T16:26:56.772Z,95654.13
2024-01-03T16:29:28.909Z,95654.75
2024-01-03T16:32:02.524Z,95657.97
2024-01-03T16:34:35.927Z,95660.28
2024-01-03T16:37:09.436Z,95664.00
2024-01-03T16:39:40.128Z,95660.22
2024-01-03T16:42:12.371Z,95663.94
2024-01-03T16:44:43.220Z,95656.53
2024-01-03T16:47:13.752Z,95648.22
2024-01-03T16:49:50.105Z,95657.09
2024-01-03T16:52:22.497Z,95651.06
2024-01-03T16:54:53.105Z,95648.81
2024-01-03T16:57:23.701Z,95658.38
2024-01-03T16:59:54.360Z,95656.34
2024-01-03T17:02:24.976Z,95664.94
2024-01-03T17:04:58.737Z,95652.63
2024-01-03T17:07:29.517Z,95654.34
2024-01-03T17:10:04.677Z,95652.50
2024-01-03T17:12:35.516Z,95658.47
2024-01-03T17:15:06.658Z,95659.97
2024-01-03T17:17:37.138Z,95652.56
2024-01-03T17:20:13.506Z,95661.09
2024-01-03T17:22:44.170Z,95660.63
2024-01-03T17:25:16.215Z,95665.69
2024-01-03T17:27:46.806Z,95649.25
2024-01-03T17:30:18.594Z,95648.78
2024-01-03T17:32:49.498Z,95648.03
2024-01-03T17:35:25.182Z,95656.38
2024-01-03T17:37:58.156Z,95650.38
2024-01-03T17:40:28.696Z,95647.09
2024-01-03T17:42:59.326Z,95639.81
2024-01-03T17:45:30.020Z,95650.88
2024-01-03T17:48:00.900Z,95632.53
2024-01-03T17:50:34.412Z,95630.47
2024-01-03T17:53:05.014Z,95636.56
2024-01-03T17:55:35.771Z,95623.56
2024-01-03T17:58:06.502Z,95622.34
2024-01-03T18:00:37.383Z,95618.38
2024-01-03T18:03:08.631Z,95610.59
2024-01-03T18:05:44.329Z,95621.88
2024-01-03T18:08:15.532Z,95612.91
2024-01-03T18:10:48.132Z,95624.22
2024-01-03T18:13:20.250Z,95638.03
2024-01-03T18:15:50.946Z,95631.75
2024-01-03T18:18:21.749Z,95626.75
2024-01-03T18:20:55.270Z,95623.53
2024-01-03T18:23:25.749Z,95631.09
2024-01-03T18:25:56.352Z,95627.09
2024-01-03T18:28:27.013Z,95633.81
2024-01-03T18:30:57.684Z,95639.88
2024-01-03T18:33:28.350Z,95644.66
2024-01-03T18:36:02.114Z,95635.56
2024-01-03T18:38:33.712Z,95623.25
2024-01-03T18:41:04.611Z,95626.53
2024-01-03T18:43:35.220Z,95634.88
2024-01-03T18:46:07.314Z,95606.19
2024-01-03T18:48:37.876Z,95623.47
2024-01-03T18:51:11.474Z,95610.59
2024-01-03T18:53:42.038Z,95620.66
2024-01-03T18:56:12.852Z,95612.66
2024-01-03T18:58:43.678Z,95609.13
2024-01-03T19:01:19.875Z,95614.38
2024-01-03T19:03:51.653Z,95600.50
2024-01-03T19:06:25.076Z,95624.84
2024-01-03T19:08:55.684Z,95594.28
2024-01-03T19:11:26.316Z,95587.03
2024-01-03T19:13:56.945Z,95593.03
2024-01-03T19:16:29.687Z,95591.00
2024-01-03T19:19:03.654Z,95581.97
2024-01-03T19:21:37.264Z,95588.31
2024-01-03T19:24:09.133Z,95576.28
2024-01-03T19:26:39.929Z,95588.81
2024-01-03T19:29:10.515Z,95581.56
2024-01-03T19:31:41.204Z,95575.75
2024-01-03T19:34:11.837Z,95586.34
2024-01-03T19:36:45.481Z,95584.41
2024-01-03T19:39:16.272Z,95578.38
2024-01-03T19:41:48.716Z,95585.09
2024-01-03T19:44:21.149Z,95577.06
2024-01-03T19:46:53.119Z,95589.69
2024-01-03T19:49:24.147Z,95583.19
2024-01-03T19:51:57.165Z,95580.94
2024-01-03T19:54:27.629Z,95590.19
2024-01-03T19:56:58.286Z,95577.38
2024-01-03T19:59:29.446Z,95575.81
2024-01-03T20:01:59.989Z,95569.31
2024-01-03T20:04:30.736Z,95556.78
2024-01-03T20:07:05.020Z,95559.81
2024-01-03T20:09:35.964Z,95554.53
2024-01-03T20:12:08.609Z,95564.06
2024-01-03T20:14:40.228Z,95554.97
2024-01-03T20:17:10.986Z,95567.53
2024-01-03T20:19:41.672Z,95559.03
2024-01-03T20:22:15.247Z,95539.97
2024-01-03T20:24:45.945Z,95544.41
2024-01-03T20:27:16.743Z,95544.47
2024-01-03T20:29:47.520Z,95542.22
2024-01-03T20:32:18.729Z,95553.78
2024-01-03T20:34:49.262Z,95544.22
2024-01-03T20:37:22.380Z,95540.97
2024-01-03T20:39:52.998Z,95558.03
2024-01-03T20:42:23.566Z,95545.91
2024-01-03T20:44:54.239Z,95539.03
2024-01-03T20:47:25.120Z,95539.00
2024-01-03T20:49:57.243Z,95526.09
2024-01-03T20:52:31.664Z,95529.84
2024-01-03T20:55:02.583Z,95519.38
2024-01-03T20:57:33.273Z,95556.28
2024-01-03T21:00:04.886Z,95540.44
2024-01-03T21:02:35.475Z,95546.00
2024-01-03T21:05:06.884Z,95536.50
2024-01-03T21:07:40.194Z,95544.34
2024-01-03T21:10:11.881Z,95530.97
2024-01-03T21:12:42.645Z,95540.25
2024-01-03T21:15:14.222Z,95550.25
2024-01-03T21:17:45.083Z,95553.06
2024-01-03T21:20:15.797Z,95567.47
2024-01-03T21:22:49.173Z,95549.25
2024-01-03T21:25:19.793Z,95564.38
2024-01-03T21:27:52.097Z,95569.91
2024-01-03T21:30:24.144Z,95561.22
2024-01-03T21:32:54.850Z,95567.63
2024-01-03T21:35:26.238Z,95558.88
2024-01-03T21:38:01.142Z,95553.88
2024-01-03T21:40:31.665Z,95548.41
2024-01-03T21:43:02.299Z,95553.72
2024-01-03T21:45:33.689Z,95550.41
2024-01-03T21:48:04.429Z,95550.25
2024-01-03T21:50:35.200Z,95557.25
2024-01-03T21:53:08.708Z,95561.25
2024-01-03T21:55:39.303Z,95557.19
2024-01-03T21:58:09.993Z,95550.19
2024-01-03T22:00:40.734Z,95552.00
2024-01-03T22:03:12.559Z,95557.88
2024-01-03T22:05:43.258Z,95564.41
2024-01-03T22:08:16.468Z,95564.94
2024-01-03T22:10:49.467Z,95563.75
2024-01-03T22:13:20.794Z,95562.03
2024-01-03T22:15:54.857Z,95568.03
2024-01-03T22:18:25.783Z,95567.28
2024-01-03T22:20:56.474Z,95579.88
2024-01-03T22:23:29.837Z,95569.38
2024-01-03T22:26:01.300Z,95569.88
2024-01-03T22:28:31.925Z,95572.38
2024-01-03T22:31:02.582Z,95576.81
2024-01-03T22:33:33.501Z,95577.09
2024-01-03T22:36:04.276Z,95579.06
2024-01-03T22:38:37.700Z,95585.84
2024-01-03T22:41:08.367Z,95587.66
2024-01-03T22:43:38.918Z,95585.72
2024-01-03T22:46:09.623Z,95602.34
2024-01-03T22:48:40.729Z,95594.41
2024-01-03T22:51:11.403Z,95588.13
2024-01-03T22:53:44.638Z,95601.94
2024-01-03T22:56:15.254Z,95603.41
2024-01-03T22:58:45.802Z,95600.44
2024-01-03T23:01:16.519Z,95610.19
2024-01-03T23:03:47.075Z,95603.66
2024-01-03T23:06:18.031Z,95617.16
2024-01-03T23:08:51.404Z,95617.94
2024-01-03T23:11:22.022Z,95620.97
2024-01-03T23:14:08.840Z,95614.44
2024-01-03T23:16:40.211Z,95605.22
2024-01-03T23:19:11.094Z,95597.16
2024-01-03T23:21:41.981Z,95606.69
2024-01-03T23:24:15.302Z,95611.72
2024-01-03T23:26:45.920Z,95614.25
2024-01-03T23:29:17.332Z,95600.97
2024-01-03T23:31:47.897Z,95606.47
2024-01-03T23:34:18.692Z,95611.72
2024-01-03T23:36:52.378Z,95608.97
2024-01-03T23:39:25.744Z,95603.97
2024-01-03T23:41:56.598Z,95605.97
2024-01-03T23:44:27.315Z,95593.44
2024-01-03T23:46:59.174Z,95608.22
2024-01-03T23:49:29.960Z,95607.47
2024-01-03T23:52:00.710Z,95611.47
2024-01-03T23:54:35.304Z,95608.22
2024-01-03T23:57:05.847Z,95609.22
2024-01-03T23:59:36.548Z,95613.47
